sensor_id;sensor_type;location;lat;lon;timestamp;pressure;altitude;pressure_sealevel;temperature;humidity
59063;BME280;44851;45.648;9.004;2023-12-04T00:02:20;99702.69;;;2.28;59.90
59063;BME280;44851;45.648;9.004;2023-12-04T00:04:46;99706.91;;;2.29;60.35
59063;BME280;44851;45.648;9.004;2023-12-04T00:07:11;99699.69;;;2.37;59.65
59063;BME280;44851;45.648;9.004;2023-12-04T00:09:36;99693.00;;;2.33;59.82
59063;BME280;44851;45.648;9.004;2023-12-04T00:12:02;99692.75;;;2.20;59.83
59063;BME280;44851;45.648;9.004;2023-12-04T00:14:27;99698.31;;;2.30;59.71
59063;BME280;44851;45.648;9.004;2023-12-04T00:16:52;99695.03;;;2.08;59.72
59063;BME280;44851;45.648;9.004;2023-12-04T00:19:18;99689.81;;;2.28;59.56
59063;BME280;44851;45.648;9.004;2023-12-04T00:21:43;99684.97;;;2.41;59.55
59063;BME280;44851;45.648;9.004;2023-12-04T00:24:09;99686.84;;;2.37;59.75
59063;BME280;44851;45.648;9.004;2023-12-04T00:26:34;99688.03;;;2.30;59.16
59063;BME280;44851;45.648;9.004;2023-12-04T00:29:00;99692.25;;;2.31;59.25
59063;BME280;44851;45.648;9.004;2023-12-04T00:31:25;99688.66;;;2.35;59.58
59063;BME280;44851;45.648;9.004;2023-12-04T00:33:50;99688.28;;;2.43;59.64
59063;BME280;44851;45.648;9.004;2023-12-04T00:36:16;99681.41;;;2.43;59.65
59063;BME280;44851;45.648;9.004;2023-12-04T00:38:41;99681.19;;;2.48;59.52
59063;BME280;44851;45.648;9.004;2023-12-04T00:41:07;99669.91;;;2.50;59.50
59063;BME280;44851;45.648;9.004;2023-12-04T00:43:32;99665.66;;;2.49;59.21
59063;BME280;44851;45.648;9.004;2023-12-04T00:45:57;99663.56;;;2.40;59.16
59063;BME280;44851;45.648;9.004;2023-12-04T00:48:23;99666.88;;;2.42;58.85
59063;BME280;44851;45.648;9.004;2023-12-04T00:50:48;99663.09;;;2.49;58.96
59063;BME280;44851;45.648;9.004;2023-12-04T00:53:13;99665.88;;;2.45;59.33
59063;BME280;44851;45.648;9.004;2023-12-04T00:55:39;99675.66;;;2.56;59.27
59063;BME280;44851;45.648;9.004;2023-12-04T00:58:04;99670.47;;;2.57;59.53
59063;BME280;44851;45.648;9.004;2023-12-04T01:00:30;99671.59;;;2.52;59.31
59063;BME280;44851;45.648;9.004;2023-12-04T01:02:55;99673.09;;;2.56;59.64
59063;BME280;44851;45.648;9.004;2023-12-04T01:05:20;99679.09;;;2.56;59.85
59063;BME280;44851;45.648;9.004;2023-12-04T01:07:46;99675.47;;;2.60;59.99
59063;BME280;44851;45.648;9.004;2023-12-04T01:10:11;99677.06;;;2.63;60.34
59063;BME280;44851;45.648;9.004;2023-12-04T01:12:36;99671.84;;;2.64;60.53
59063;BME280;44851;45.648;9.004;2023-12-04T01:15:02;99673.44;;;2.67;60.92
59063;BME280;44851;45.648;9.004;2023-12-04T01:17:28;99673.59;;;2.64;60.80
59063;BME280;44851;45.648;9.004;2023-12-04T01:19:53;99685.97;;;2.56;60.82
59063;BME280;44851;45.648;9.004;2023-12-04T01:22:19;99684.78;;;2.63;61.07
59063;BME280;44851;45.648;9.004;2023-12-04T01:24:44;99688.28;;;2.62;60.67
59063;BME280;44851;45.648;9.004;2023-12-04T01:27:10;99691.06;;;2.57;60.47
59063;BME280;44851;45.648;9.004;2023-12-04T01:29:36;99699.31;;;2.64;60.28
59063;BME280;44851;45.648;9.004;2023-12-04T01:32:01;99694.66;;;2.72;60.19
59063;BME280;44851;45.648;9.004;2023-12-04T01:34:26;99699.94;;;2.69;60.92
59063;BME280;44851;45.648;9.004;2023-12-04T01:36:52;99703.44;;;2.68;61.01
59063;BME280;44851;45.648;9.004;2023-12-04T01:39:17;99695.09;;;2.63;60.75
59063;BME280;44851;45.648;9.004;2023-12-04T01:41:42;99696.63;;;2.67;60.89
59063;BME280;44851;45.648;9.004;2023-12-04T01:44:08;99695.09;;;2.63;60.53
59063;BME280;44851;45.648;9.004;2023-12-04T01:46:33;99692.63;;;2.60;60.33
59063;BME280;44851;45.648;9.004;2023-12-04T01:48:59;99694.66;;;2.72;60.73
59063;BME280;44851;45.648;9.004;2023-12-04T01:51:26;99694.09;;;2.65;61.12
59063;BME280;44851;45.648;9.004;2023-12-04T01:53:52;99690.59;;;2.66;61.22
59063;BME280;44851;45.648;9.004;2023-12-04T01:56:19;99679.66;;;2.63;60.88
59063;BME280;44851;45.648;9.004;2023-12-04T01:58:45;99693.13;;;2.68;61.07
59063;BME280;44851;45.648;9.004;2023-12-04T02:01:11;99694.91;;;2.66;60.89
59063;BME280;44851;45.648;9.004;2023-12-04T02:03:36;99691.59;;;2.64;61.51
59063;BME280;44851;45.648;9.004;2023-12-04T02:06:02;99693.13;;;2.68;61.52
59063;BME280;44851;45.648;9.004;2023-12-04T02:08:29;99691.97;;;2.56;60.89
59063;BME280;44851;45.648;9.004;2023-12-04T02:10:54;99684.91;;;2.60;61.06
59063;BME280;44851;45.648;9.004;2023-12-04T02:13:20;99690.91;;;2.60;60.96
59063;BME280;44851;45.648;9.004;2023-12-04T02:15:49;99697.72;;;2.61;60.80
59063;BME280;44851;45.648;9.004;2023-12-04T02:18:17;99701.22;;;2.41;60.73
59063;BME280;44851;45.648;9.004;2023-12-04T02:20:43;99697.63;;;2.45;61.68
59063;BME280;44851;45.648;9.004;2023-12-04T02:23:08;99693.00;;;2.33;61.72
59063;BME280;44851;45.648;9.004;2023-12-04T02:25:34;99692.03;;;2.55;61.39
59063;BME280;44851;45.648;9.004;2023-12-04T02:28:01;99695.09;;;2.63;61.25
59063;BME280;44851;45.648;9.004;2023-12-04T02:30:28;99692.84;;;2.55;60.37
59063;BME280;44851;45.648;9.004;2023-12-04T02:32:56;99690.28;;;2.55;60.78
59063;BME280;44851;45.648;9.004;2023-12-04T02:35:24;99685.00;;;2.58;61.20
59063;BME280;44851;45.648;9.004;2023-12-04T02:37:51;99687.38;;;2.63;61.68
59063;BME280;44851;45.648;9.004;2023-12-04T02:40:18;99689.53;;;2.53;61.01
59063;BME280;44851;45.648;9.004;2023-12-04T02:42:44;99689.66;;;2.69;61.00
59063;BME280;44851;45.648;9.004;2023-12-04T02:45:09;99692.66;;;2.77;60.78
59063;BME280;44851;45.648;9.004;2023-12-04T02:47:35;99691.84;;;2.76;60.86
59063;BME280;44851;45.648;9.004;2023-12-04T02:50:00;99683.50;;;2.71;60.44
59063;BME280;44851;45.648;9.004;2023-12-04T02:52:26;99682.06;;;2.66;59.65
59063;BME280;44851;45.648;9.004;2023-12-04T02:54:51;99676.03;;;2.67;60.17
59063;BME280;44851;45.648;9.004;2023-12-04T02:57:17;99682.22;;;2.63;59.84
59063;BME280;44851;45.648;9.004;2023-12-04T02:59:42;99677.00;;;2.64;60.08
59063;BME280;44851;45.648;9.004;2023-12-04T03:02:08;99665.38;;;2.56;59.44
59063;BME280;44851;45.648;9.004;2023-12-04T03:04:34;99666.28;;;2.55;59.58
59063;BME280;44851;45.648;9.004;2023-12-04T03:06:59;99675.13;;;2.68;60.18
59063;BME280;44851;45.648;9.004;2023-12-04T03:09:25;99671.75;;;2.66;59.76
59063;BME280;44851;45.648;9.004;2023-12-04T03:11:50;99670.09;;;2.65;60.29
59063;BME280;44851;45.648;9.004;2023-12-04T03:14:15;99671.63;;;2.69;60.57
59063;BME280;44851;45.648;9.004;2023-12-04T03:16:41;99662.91;;;2.71;60.44
59063;BME280;44851;45.648;9.004;2023-12-04T03:19:06;99665.72;;;2.67;60.71
59063;BME280;44851;45.648;9.004;2023-12-04T03:21:32;99662.09;;;2.71;60.51
59063;BME280;44851;45.648;9.004;2023-12-04T03:23:57;99660.59;;;2.67;60.78
59063;BME280;44851;45.648;9.004;2023-12-04T03:26:23;99659.47;;;2.72;60.61
59063;BME280;44851;45.648;9.004;2023-12-04T03:28:48;99656.94;;;2.71;60.99
59063;BME280;44851;45.648;9.004;2023-12-04T03:31:13;99655.19;;;2.71;61.30
59063;BME280;44851;45.648;9.004;2023-12-04T03:33:39;99647.47;;;2.71;61.46
59063;BME280;44851;45.648;9.004;2023-12-04T03:36:05;99638.88;;;2.72;61.32
59063;BME280;44851;45.648;9.004;2023-12-04T03:38:30;99644.91;;;2.71;61.44
59063;BME280;44851;45.648;9.004;2023-12-04T03:40:55;99638.47;;;2.63;61.06
59063;BME280;44851;45.648;9.004;2023-12-04T03:43:21;99636.94;;;2.59;61.04
59063;BME280;44851;45.648;9.004;2023-12-04T03:45:46;99640.13;;;2.64;61.42
59063;BME280;44851;45.648;9.004;2023-12-04T03:48:12;99641.94;;;2.62;61.63
59063;BME280;44851;45.648;9.004;2023-12-04T03:50:37;99639.50;;;2.59;61.57
59063;BME280;44851;45.648;9.004;2023-12-04T03:53:02;99640.22;;;2.62;61.64
59063;BME280;44851;45.648;9.004;2023-12-04T03:55:28;99640.13;;;2.64;62.06
59063;BME280;44851;45.648;9.004;2023-12-04T03:57:54;99642.56;;;2.67;62.21
59063;BME280;44851;45.648;9.004;2023-12-04T04:00:20;99634.84;;;2.67;61.95
59063;BME280;44851;45.648;9.004;2023-12-04T04:02:46;99638.47;;;2.63;61.87
59063;BME280;44851;45.648;9.004;2023-12-04T04:05:11;99639.91;;;2.68;62.33
59063;BME280;44851;45.648;9.004;2023-12-04T04:07:36;99630.31;;;2.72;62.46
59063;BME280;44851;45.648;9.004;2023-12-04T04:10:02;99620.00;;;2.72;62.61
59063;BME280;44851;45.648;9.004;2023-12-04T04:12:29;99623.56;;;2.69;62.22
59063;BME280;44851;45.648;9.004;2023-12-04T04:14:55;99617.56;;;2.69;63.06
59063;BME280;44851;45.648;9.004;2023-12-04T04:17:20;99620.28;;;2.66;62.63
59063;BME280;44851;45.648;9.004;2023-12-04T04:19:46;99629.69;;;2.67;62.79
59063;BME280;44851;45.648;9.004;2023-12-04T04:22:11;99633.16;;;2.66;63.15
59063;BME280;44851;45.648;9.004;2023-12-04T04:24:36;99626.34;;;2.65;63.12
59063;BME280;44851;45.648;9.004;2023-12-04T04:27:02;99624.16;;;2.57;62.61
59063;BME280;44851;45.648;9.004;2023-12-04T04:29:27;99631.72;;;2.60;62.67
59063;BME280;44851;45.648;9.004;2023-12-04T04:31:53;99632.41;;;2.64;62.23
59063;BME280;44851;45.648;9.004;2023-12-04T04:34:20;99629.84;;;2.64;62.55
59063;BME280;44851;45.648;9.004;2023-12-04T04:36:46;99628.22;;;2.61;62.61
59063;BME280;44851;45.648;9.004;2023-12-04T04:39:14;99636.09;;;2.58;62.35
59063;BME280;44851;45.648;9.004;2023-12-04T04:41:40;99639.59;;;2.57;62.55
59063;BME280;44851;45.648;9.004;2023-12-04T04:44:06;99637.94;;;2.56;62.52
59063;BME280;44851;45.648;9.004;2023-12-04T04:46:31;99636.94;;;2.59;62.72
59063;BME280;44851;45.648;9.004;2023-12-04T04:48:57;99644.28;;;2.66;62.49
59063;BME280;44851;45.648;9.004;2023-12-04T04:51:22;99645.28;;;2.64;62.34
59063;BME280;44851;45.648;9.004;2023-12-04T04:53:48;99647.22;;;2.59;62.09
59063;BME280;44851;45.648;9.004;2023-12-04T04:56:14;99642.09;;;2.59;61.91
59063;BME280;44851;45.648;9.004;2023-12-04T04:58:39;99642.22;;;2.56;62.03
59063;BME280;44851;45.648;9.004;2023-12-04T05:01:05;99643.00;;;2.58;61.99
59063;BME280;44851;45.648;9.004;2023-12-04T05:03:30;99644.66;;;2.59;62.21
59063;BME280;44851;45.648;9.004;2023-12-04T05:05:56;99640.44;;;2.58;62.99
59063;BME280;44851;45.648;9.004;2023-12-04T05:08:21;99641.25;;;2.58;63.32
59063;BME280;44851;45.648;9.004;2023-12-04T05:10:46;99636.94;;;2.59;63.76
59063;BME280;44851;45.648;9.004;2023-12-04T05:13:12;99636.03;;;2.60;63.53
59063;BME280;44851;45.648;9.004;2023-12-04T05:15:37;99642.00;;;2.60;63.53
59063;BME280;44851;45.648;9.004;2023-12-04T05:18:03;99626.66;;;2.59;63.25
59063;BME280;44851;45.648;9.004;2023-12-04T05:20:28;99634.38;;;2.59;63.29
59063;BME280;44851;45.648;9.004;2023-12-04T05:22:53;99636.81;;;2.62;63.14
59063;BME280;44851;45.648;9.004;2023-12-04T05:25:19;99629.25;;;2.40;62.80
59063;BME280;44851;45.648;9.004;2023-12-04T05:27:44;99626.16;;;2.50;62.99
59063;BME280;44851;45.648;9.004;2023-12-04T05:30:11;99628.47;;;2.57;62.73
59063;BME280;44851;45.648;9.004;2023-12-04T05:32:36;99620.81;;;2.55;62.79
59063;BME280;44851;45.648;9.004;2023-12-04T05:35:01;99625.00;;;2.58;63.08
59063;BME280;44851;45.648;9.004;2023-12-04T05:37:27;99617.63;;;2.50;63.05
59063;BME280;44851;45.648;9.004;2023-12-04T05:39:53;99617.63;;;2.50;63.67
59063;BME280;44851;45.648;9.004;2023-12-04T05:42:18;99616.88;;;2.48;63.87
59063;BME280;44851;45.648;9.004;2023-12-04T05:44:43;99611.22;;;2.59;63.91
59063;BME280;44851;45.648;9.004;2023-12-04T05:47:09;99614.28;;;2.48;63.57
59063;BME280;44851;45.648;9.004;2023-12-04T05:49:34;99612.41;;;2.52;63.91
59063;BME280;44851;45.648;9.004;2023-12-04T05:52:00;99612.25;;;2.55;63.90
59063;BME280;44851;45.648;9.004;2023-12-04T05:54:25;99605.00;;;2.45;63.70
59063;BME280;44851;45.648;9.004;2023-12-04T05:56:51;99609.28;;;2.45;63.58
59063;BME280;44851;45.648;9.004;2023-12-04T05:59:16;99609.84;;;2.52;63.74
59063;BME280;44851;45.648;9.004;2023-12-04T06:01:41;99602.34;;;2.47;63.58
59063;BME280;44851;45.648;9.004;2023-12-04T06:04:07;99602.03;;;2.36;63.53
59063;BME280;44851;45.648;9.004;2023-12-04T06:06:32;99598.31;;;2.41;63.76
59063;BME280;44851;45.648;9.004;2023-12-04T06:08:58;99601.50;;;2.46;63.67
59063;BME280;44851;45.648;9.004;2023-12-04T06:11:23;99601.50;;;2.46;63.94
59063;BME280;44851;45.648;9.004;2023-12-04T06:13:48;99598.88;;;2.29;62.88
59063;BME280;44851;45.648;9.004;2023-12-04T06:16:14;99597.22;;;2.28;63.14
59063;BME280;44851;45.648;9.004;2023-12-04T06:18:39;99590.66;;;2.40;63.43
59063;BME280;44851;45.648;9.004;2023-12-04T06:21:05;99594.84;;;2.42;62.96
59063;BME280;44851;45.648;9.004;2023-12-04T06:23:31;99602.56;;;2.42;62.67
59063;BME280;44851;45.648;9.004;2023-12-04T06:25:57;99598.06;;;2.29;62.24
59063;BME280;44851;45.648;9.004;2023-12-04T06:28:22;99600.28;;;2.36;62.69
59063;BME280;44851;45.648;9.004;2023-12-04T06:30:48;99606.03;;;2.41;62.89
59063;BME280;44851;45.648;9.004;2023-12-04T06:33:13;99606.66;;;2.46;62.48
59063;BME280;44851;45.648;9.004;2023-12-04T06:35:40;99605.81;;;2.46;62.00
59063;BME280;44851;45.648;9.004;2023-12-04T06:38:06;99613.53;;;2.46;62.22
59063;BME280;44851;45.648;9.004;2023-12-04T06:40:33;99613.47;;;2.47;61.50
59063;BME280;44851;45.648;9.004;2023-12-04T06:42:59;99618.44;;;2.50;62.62
59063;BME280;44851;45.648;9.004;2023-12-04T06:45:24;99618.31;;;2.54;62.68
59063;BME280;44851;45.648;9.004;2023-12-04T06:47:50;99625.94;;;2.55;62.51
59063;BME280;44851;45.648;9.004;2023-12-04T06:50:16;99621.63;;;2.56;62.52
59063;BME280;44851;45.648;9.004;2023-12-04T06:52:42;99619.84;;;2.58;62.95
59063;BME280;44851;45.648;9.004;2023-12-04T06:55:08;99625.94;;;2.55;62.74
59063;BME280;44851;45.648;9.004;2023-12-04T06:57:33;99621.50;;;2.59;63.32
59063;BME280;44851;45.648;9.004;2023-12-04T06:59:59;99620.19;;;2.50;62.66
59063;BME280;44851;45.648;9.004;2023-12-04T07:02:24;99625.13;;;2.55;63.05
59063;BME280;44851;45.648;9.004;2023-12-04T07:04:49;99621.81;;;2.53;62.92
59063;BME280;44851;45.648;9.004;2023-12-04T07:07:15;99620.50;;;2.61;63.04
59063;BME280;44851;45.648;9.004;2023-12-04T07:09:41;99621.38;;;2.62;62.71
59063;BME280;44851;45.648;9.004;2023-12-04T07:12:06;99613.16;;;2.54;63.10
59063;BME280;44851;45.648;9.004;2023-12-04T07:14:32;99618.72;;;2.63;63.25
59063;BME280;44851;45.648;9.004;2023-12-04T07:16:57;99607.59;;;2.63;62.36
59063;BME280;44851;45.648;9.004;2023-12-04T07:19:23;99608.03;;;2.54;62.25
59063;BME280;44851;45.648;9.004;2023-12-04T07:21:49;99597.59;;;2.57;62.65
59063;BME280;44851;45.648;9.004;2023-12-04T07:24:15;99597.44;;;2.60;62.98
59063;BME280;44851;45.648;9.004;2023-12-04T07:26:41;99604.22;;;2.61;63.15
59063;BME280;44851;45.648;9.004;2023-12-04T07:29:06;99602.66;;;2.58;62.95
59063;BME280;44851;45.648;9.004;2023-12-04T07:31:32;99595.34;;;2.68;62.98
59063;BME280;44851;45.648;9.004;2023-12-04T07:33:58;99607.41;;;2.66;63.08
59063;BME280;44851;45.648;9.004;2023-12-04T07:36:25;99602.88;;;2.71;63.12
59063;BME280;44851;45.648;9.004;2023-12-04T07:38:50;99607.28;;;2.69;63.29
59063;BME280;44851;45.648;9.004;2023-12-04T07:41:17;99608.03;;;2.71;63.32
59063;BME280;44851;45.648;9.004;2023-12-04T07:43:43;99603.50;;;2.76;63.54
59063;BME280;44851;45.648;9.004;2023-12-04T07:46:09;99602.53;;;2.79;63.53
59063;BME280;44851;45.648;9.004;2023-12-04T07:48:35;99603.50;;;2.76;63.59
59063;BME280;44851;45.648;9.004;2023-12-04T07:51:01;99601.53;;;2.81;63.35
59063;BME280;44851;45.648;9.004;2023-12-04T07:53:26;99601.84;;;2.75;63.28
59063;BME280;44851;45.648;9.004;2023-12-04T07:55:52;99588.22;;;2.73;63.14
59063;BME280;44851;45.648;9.004;2023-12-04T07:58:17;99597.44;;;2.77;62.84
59063;BME280;44851;45.648;9.004;2023-12-04T08:00:44;99595.41;;;2.84;63.01
59063;BME280;44851;45.648;9.004;2023-12-04T08:03:09;99604.88;;;2.83;62.67
59063;BME280;44851;45.648;9.004;2023-12-04T08:05:34;99603.19;;;2.82;62.99
59063;BME280;44851;45.648;9.004;2023-12-04T08:08:00;99609.84;;;2.86;63.30
59063;BME280;44851;45.648;9.004;2023-12-04T08:10:25;99610.69;;;2.87;63.74
59063;BME280;44851;45.648;9.004;2023-12-04T08:12:51;99612.59;;;2.83;63.28
59063;BME280;44851;45.648;9.004;2023-12-04T08:15:16;99601.22;;;2.87;63.79
59063;BME280;44851;45.648;9.004;2023-12-04T08:17:42;99595.94;;;2.90;63.80
59063;BME280;44851;45.648;9.004;2023-12-04T08:20:07;99596.06;;;2.87;63.71
59063;BME280;44851;45.648;9.004;2023-12-04T08:22:39;99602.44;;;2.97;62.95
59063;BME280;44851;45.648;9.004;2023-12-04T08:25:04;99604.56;;;2.89;63.24
59063;BME280;44851;45.648;9.004;2023-12-04T08:27:32;99600.69;;;2.98;62.63
59063;BME280;44851;45.648;9.004;2023-12-04T08:29:57;99585.00;;;3.02;62.29
59063;BME280;44851;45.648;9.004;2023-12-04T08:32:23;99586.63;;;3.05;62.39
59063;BME280;44851;45.648;9.004;2023-12-04T08:34:48;99588.69;;;3.14;62.33
59063;BME280;44851;45.648;9.004;2023-12-04T08:37:14;99590.63;;;3.11;61.88
59063;BME280;44851;45.648;9.004;2023-12-04T08:39:39;99586.06;;;3.16;61.57
59063;BME280;44851;45.648;9.004;2023-12-04T08:42:05;99577.25;;;3.20;61.69
59063;BME280;44851;45.648;9.004;2023-12-04T08:44:31;99586.22;;;3.13;62.02
59063;BME280;44851;45.648;9.004;2023-12-04T08:46:56;99601.22;;;3.22;61.64
59063;BME280;44851;45.648;9.004;2023-12-04T08:49:23;99590.50;;;3.29;61.98
59063;BME280;44851;45.648;9.004;2023-12-04T08:51:51;99598.91;;;3.33;61.17
59063;BME280;44851;45.648;9.004;2023-12-04T08:54:16;99595.09;;;3.40;61.17
59063;BME280;44851;45.648;9.004;2023-12-04T08:56:41;99588.81;;;3.46;61.38
59063;BME280;44851;45.648;9.004;2023-12-04T08:59:07;99599.31;;;3.43;60.87
59063;BME280;44851;45.648;9.004;2023-12-04T09:01:32;99599.97;;;3.46;60.73
59063;BME280;44851;45.648;9.004;2023-12-04T09:03:58;99590.00;;;3.56;60.29
59063;BME280;44851;45.648;9.004;2023-12-04T09:06:23;99584.13;;;3.54;60.13
59063;BME280;44851;45.648;9.004;2023-12-04T09:08:48;99585.69;;;3.57;60.24
59063;BME280;44851;45.648;9.004;2023-12-04T09:11:14;99589.94;;;3.58;60.62
59063;BME280;44851;45.648;9.004;2023-12-04T09:13:39;99594.59;;;3.67;60.05
59063;BME280;44851;45.648;9.004;2023-12-04T09:16:05;99591.53;;;3.76;60.35
59063;BME280;44851;45.648;9.004;2023-12-04T09:18:30;99592.13;;;3.81;60.32
59063;BME280;44851;45.648;9.004;2023-12-04T09:20:56;99591.03;;;3.69;60.04
59063;BME280;44851;45.648;9.004;2023-12-04T09:23:21;99598.78;;;3.69;60.44
59063;BME280;44851;45.648;9.004;2023-12-04T09:25:46;99599.34;;;3.59;60.31
59063;BME280;44851;45.648;9.004;2023-12-04T09:28:12;99603.00;;;3.54;59.66
59063;BME280;44851;45.648;9.004;2023-12-04T09:30:37;99599.03;;;3.65;59.47
59063;BME280;44851;45.648;9.004;2023-12-04T09:33:03;99599.50;;;3.56;59.62
59063;BME280;44851;45.648;9.004;2023-12-04T09:35:28;99605.41;;;3.58;59.33
59063;BME280;44851;45.648;9.004;2023-12-04T09:37:53;99610.72;;;3.54;59.50
59063;BME280;44851;45.648;9.004;2023-12-04T09:40:19;99607.59;;;3.65;59.24
59063;BME280;44851;45.648;9.004;2023-12-04T09:42:45;99610.66;;;3.72;59.59
59063;BME280;44851;45.648;9.004;2023-12-04T09:45:11;99610.50;;;3.75;59.44
59063;BME280;44851;45.648;9.004;2023-12-04T09:47:37;99612.31;;;3.73;59.25
59063;BME280;44851;45.648;9.004;2023-12-04T09:50:03;99609.25;;;3.82;59.37
59063;BME280;44851;45.648;9.004;2023-12-04T09:52:30;99610.69;;;3.88;59.19
59063;BME280;44851;45.648;9.004;2023-12-04T09:54:56;99611.50;;;3.88;59.45
59063;BME280;44851;45.648;9.004;2023-12-04T09:57:23;99617.25;;;3.93;59.28
59063;BME280;44851;45.648;9.004;2023-12-04T09:59:51;99607.97;;;4.06;59.55
59063;BME280;44851;45.648;9.004;2023-12-04T10:02:17;99609.19;;;4.15;59.68
59063;BME280;44851;45.648;9.004;2023-12-04T10:04:42;99611.28;;;4.24;59.81
59063;BME280;44851;45.648;9.004;2023-12-04T10:07:08;99606.84;;;4.26;59.57
59063;BME280;44851;45.648;9.004;2023-12-04T10:09:33;99608.69;;;4.40;59.14
59063;BME280;44851;45.648;9.004;2023-12-04T10:11:59;99595.06;;;4.52;58.16
59063;BME280;44851;45.648;9.004;2023-12-04T10:14:24;99595.16;;;4.51;57.83
59063;BME280;44851;45.648;9.004;2023-12-04T10:16:51;99583.50;;;4.59;58.40
59063;BME280;44851;45.648;9.004;2023-12-04T10:19:25;99582.53;;;4.76;59.06
59063;BME280;44851;45.648;9.004;2023-12-04T10:21:56;99585.59;;;4.83;58.28
59063;BME280;44851;45.648;9.004;2023-12-04T10:24:32;99578.00;;;4.66;55.91
59063;BME280;44851;45.648;9.004;2023-12-04T10:26:59;99568.19;;;4.56;56.27
59063;BME280;44851;45.648;9.004;2023-12-04T10:29:29;99562.59;;;4.64;56.95
59063;BME280;44851;45.648;9.004;2023-12-04T10:31:59;99556.16;;;4.71;57.04
59063;BME280;44851;45.648;9.004;2023-12-04T10:34:25;99541.31;;;4.75;57.14
59063;BME280;44851;45.648;9.004;2023-12-04T10:36:51;99544.69;;;4.61;56.85
59063;BME280;44851;45.648;9.004;2023-12-04T10:39:17;99540.19;;;4.65;56.48
59063;BME280;44851;45.648;9.004;2023-12-04T10:41:43;99538.84;;;4.57;56.82
59063;BME280;44851;45.648;9.004;2023-12-04T10:44:09;99525.22;;;4.55;56.49
59063;BME280;44851;45.648;9.004;2023-12-04T10:46:36;99521.34;;;4.63;56.41
59063;BME280;44851;45.648;9.004;2023-12-04T10:49:04;99517.84;;;4.64;55.91
59063;BME280;44851;45.648;9.004;2023-12-04T10:51:30;99508.94;;;4.39;56.11
59063;BME280;44851;45.648;9.004;2023-12-04T10:53:55;99504.41;;;4.58;55.95
59063;BME280;44851;45.648;9.004;2023-12-04T10:56:31;99493.88;;;4.62;56.02
59063;BME280;44851;45.648;9.004;2023-12-04T10:59:00;99489.69;;;4.75;56.54
59063;BME280;44851;45.648;9.004;2023-12-04T11:01:27;99478.78;;;4.70;55.84
59063;BME280;44851;45.648;9.004;2023-12-04T11:03:56;99477.75;;;4.72;56.88
59063;BME280;44851;45.648;9.004;2023-12-04T11:06:24;99474.25;;;4.73;56.83
59063;BME280;44851;45.648;9.004;2023-12-04T11:08:52;99473.97;;;4.78;55.99
59063;BME280;44851;45.648;9.004;2023-12-04T11:11:27;99458.75;;;4.73;55.26
59063;BME280;44851;45.648;9.004;2023-12-04T11:13:54;99465.50;;;4.76;55.49
59063;BME280;44851;45.648;9.004;2023-12-04T11:16:50;99460.06;;;4.66;54.13
59063;BME280;44851;45.648;9.004;2023-12-04T11:19:36;99453.94;;;4.53;54.56
59063;BME280;44851;45.648;9.004;2023-12-04T11:22:07;99449.72;;;4.66;56.67
59063;BME280;44851;45.648;9.004;2023-12-04T11:24:32;99457.38;;;4.68;55.07
59063;BME280;44851;45.648;9.004;2023-12-04T11:26:58;99450.72;;;4.64;56.21
59063;BME280;44851;45.648;9.004;2023-12-04T11:29:24;99457.94;;;4.58;56.32
59063;BME280;44851;45.648;9.004;2023-12-04T11:31:50;99450.72;;;4.49;56.17
59063;BME280;44851;45.648;9.004;2023-12-04T11:34:16;99436.72;;;4.53;55.90
59063;BME280;44851;45.648;9.004;2023-12-04T11:36:41;99440.50;;;4.48;56.45
59063;BME280;44851;45.648;9.004;2023-12-04T11:39:10;99431.47;;;4.55;56.43
59063;BME280;44851;45.648;9.004;2023-12-04T11:41:37;99429.91;;;4.67;56.97
59063;BME280;44851;45.648;9.004;2023-12-04T11:44:03;99427.88;;;4.72;56.69
59063;BME280;44851;45.648;9.004;2023-12-04T11:46:29;99420.78;;;4.61;55.94
59063;BME280;44851;45.648;9.004;2023-12-04T11:49:25;99419.13;;;4.60;56.49
59063;BME280;44851;45.648;9.004;2023-12-04T11:54:10;99408.69;;;4.62;56.91
59063;BME280;44851;45.648;9.004;2023-12-04T11:56:39;99405.44;;;4.58;57.29
59063;BME280;44851;45.648;9.004;2023-12-04T11:59:05;99398.16;;;4.50;56.49
59063;BME280;44851;45.648;9.004;2023-12-04T12:01:37;99395.97;;;4.58;56.36
59063;BME280;44851;45.648;9.004;2023-12-04T12:04:06;99399.09;;;4.64;55.78
59063;BME280;44851;45.648;9.004;2023-12-04T12:06:31;99397.63;;;4.59;55.78
59063;BME280;44851;45.648;9.004;2023-12-04T12:08:57;99398.34;;;4.62;56.15
59063;BME280;44851;45.648;9.004;2023-12-04T12:11:23;99396.16;;;4.55;56.80
59063;BME280;44851;45.648;9.004;2023-12-04T12:13:49;99392.28;;;4.63;56.94
59063;BME280;44851;45.648;9.004;2023-12-04T12:16:14;99390.44;;;4.65;56.40
59063;BME280;44851;45.648;9.004;2023-12-04T12:18:40;99385.00;;;4.55;56.09
59063;BME280;44851;45.648;9.004;2023-12-04T12:21:06;99392.09;;;4.66;56.67
59063;BME280;44851;45.648;9.004;2023-12-04T12:23:33;99384.63;;;4.61;55.84
59063;BME280;44851;45.648;9.004;2023-12-04T12:25:59;99380.50;;;4.58;56.20
59063;BME280;44851;45.648;9.004;2023-12-04T12:28:24;99380.28;;;4.62;57.42
59063;BME280;44851;45.648;9.004;2023-12-04T12:30:51;99378.09;;;4.55;55.85
59063;BME280;44851;45.648;9.004;2023-12-04T12:33:20;99385.66;;;4.58;55.22
59063;BME280;44851;45.648;9.004;2023-12-04T12:35:48;99382.69;;;4.65;55.09
59063;BME280;44851;45.648;9.004;2023-12-04T12:38:14;99380.28;;;4.62;55.35
59063;BME280;44851;45.648;9.004;2023-12-04T12:40:40;99371.63;;;4.63;55.34
59063;BME280;44851;45.648;9.004;2023-12-04T12:43:07;99375.13;;;4.62;55.27
59063;BME280;44851;45.648;9.004;2023-12-04T12:45:43;99376.22;;;4.57;54.76
59063;BME280;44851;45.648;9.004;2023-12-04T12:48:17;99362.78;;;4.67;54.89
59063;BME280;44851;45.648;9.004;2023-12-04T12:50:43;99368.09;;;4.64;55.08
59063;BME280;44851;45.648;9.004;2023-12-04T12:53:10;99369.78;;;4.65;54.83
59063;BME280;44851;45.648;9.004;2023-12-04T12:55:43;99366.84;;;4.71;54.57
59063;BME280;44851;45.648;9.004;2023-12-04T12:58:09;99369.97;;;4.62;54.45
59063;BME280;44851;45.648;9.004;2023-12-04T13:00:35;99368.31;;;4.75;54.74
59063;BME280;44851;45.648;9.004;2023-12-04T13:03:01;99363.88;;;4.77;54.65
59063;BME280;44851;45.648;9.004;2023-12-04T13:05:27;99356.84;;;4.79;54.77
59063;BME280;44851;45.648;9.004;2023-12-04T13:07:52;99358.53;;;4.80;54.26